createdAt,value
2018-10-04T00:04:32.643Z,13.6
2018-10-04T00:14:31.869Z,13.6
2018-10-04T00:24:31.089Z,13.6
2018-10-04T00:34:30.304Z,13.6
2018-10-04T00:44:29.527Z,13.6
2018-10-04T00:54:28.731Z,13.5
2018-10-04T01:04:27.948Z,13.5
2018-10-04T01:14:27.169Z,13.5
2018-10-04T01:24:26.389Z,13.5
2018-10-04T01:34:25.613Z,13.4
2018-10-04T01:44:24.827Z,13.4
2018-10-04T01:54:24.046Z,13.3
2018-10-04T02:04:23.267Z,13.3
2018-10-04T02:14:22.493Z,13.3
2018-10-04T02:24:21.713Z,13.1
2018-10-04T02:34:20.932Z,13.1
2018-10-04T02:44:20.146Z,13.2
2018-10-04T02:54:19.376Z,13.1
2018-10-04T03:04:18.591Z,13.2
2018-10-04T03:14:17.815Z,13.2
2018-10-04T03:24:17.034Z,13.2
2018-10-04T03:34:16.251Z,13.2
2018-10-04T03:44:15.536Z,13.1
2018-10-04T03:54:14.696Z,13.2
2018-10-04T04:04:13.917Z,13.2
2018-10-04T04:14:13.138Z,13.2
2018-10-04T04:24:12.365Z,13.2
2018-10-04T04:34:11.585Z,13.1
2018-10-04T04:44:10.801Z,12.2
2018-10-04T04:54:10.029Z,11.9
2018-10-04T05:04:09.252Z,12
2018-10-04T05:14:08.472Z,12.4
2018-10-04T05:24:07.693Z,13.8
2018-10-04T05:34:06.912Z,15.1
2018-10-04T05:44:06.129Z,16.5
2018-10-04T05:54:05.348Z,17.9
2018-10-04T06:04:04.572Z,19.3
2018-10-04T06:14:03.795Z,20.5
2018-10-04T06:24:03.013Z,22
2018-10-04T06:34:02.244Z,23.6
2018-10-04T06:44:01.493Z,24.8
2018-10-04T06:54:00.678Z,26.6
2018-10-04T07:03:59.949Z,28.8
2018-10-04T07:13:59.117Z,30.6
2018-10-04T07:23:58.335Z,31.9
2018-10-04T07:33:57.557Z,32.3
2018-10-04T07:43:56.784Z,32.9
2018-10-04T07:53:56.002Z,33
2018-10-04T08:03:55.216Z,33.4
2018-10-04T08:13:54.438Z,33.6
2018-10-04T08:23:53.714Z,33.8
2018-10-04T08:33:52.883Z,33.8
2018-10-04T08:43:52.095Z,33.4
2018-10-04T08:53:51.320Z,32.3
2018-10-04T09:03:50.542Z,32.2
2018-10-04T09:13:49.763Z,32.8
2018-10-04T09:23:49.030Z,31.9
2018-10-04T09:33:48.202Z,32
2018-10-04T09:43:47.421Z,30.9
2018-10-04T09:53:46.653Z,30.8
2018-10-04T10:03:45.870Z,30.4
2018-10-04T10:13:45.137Z,29
2018-10-04T10:23:44.311Z,29.3
2018-10-04T10:33:43.541Z,28.7
2018-10-04T10:43:42.751Z,27.8
2018-10-04T10:53:41.979Z,26.7
2018-10-04T11:03:41.201Z,26
2018-10-04T11:13:40.420Z,25.2
2018-10-04T11:23:39.641Z,24.4
2018-10-04T11:33:38.863Z,23.9
2018-10-04T11:43:38.085Z,23.2
2018-10-04T11:53:37.302Z,22.8
2018-10-04T12:03:36.520Z,22.3
2018-10-04T12:13:35.788Z,21.9
2018-10-04T12:23:34.960Z,21.6
2018-10-04T12:33:34.180Z,21.2
2018-10-04T12:43:33.398Z,20.6
2018-10-04T12:53:32.617Z,20.6
2018-10-04T13:03:31.842Z,20.4
2018-10-04T13:13:31.068Z,20.3
2018-10-04T13:23:30.275Z,20.1
2018-10-04T13:33:29.511Z,20.1
2018-10-04T13:43:28.719Z,19.7
2018-10-04T13:53:27.938Z,19.5
2018-10-04T14:03:27.165Z,19.3
2018-10-04T14:13:26.380Z,19.1
2018-10-04T14:23:25.706Z,18.9
2018-10-04T14:33:24.819Z,18.8
2018-10-04T14:43:24.037Z,18.6
2018-10-04T14:53:23.259Z,18.5
2018-10-04T15:03:22.619Z,18.3
2018-10-04T15:13:21.700Z,18.1
2018-10-04T15:23:20.926Z,17.9
2018-10-04T15:33:20.140Z,17.8
2018-10-04T15:43:19.362Z,17.4
2018-10-04T15:53:18.590Z,17.1
2018-10-04T16:03:17.811Z,16.9
2018-10-04T16:13:17.030Z,16.5
2018-10-04T16:23:16.252Z,16.2
2018-10-04T16:33:15.467Z,16.2
2018-10-04T16:43:14.702Z,16.4
2018-10-04T16:53:13.915Z,16.4
2018-10-04T17:03:13.221Z,16.3
2018-10-04T17:13:12.358Z,16.3
2018-10-04T17:23:11.571Z,16.3
2018-10-04T17:33:10.796Z,16.3
2018-10-04T17:43:10.066Z,16.2
2018-10-04T17:53:09.237Z,16.1
2018-10-04T18:03:08.459Z,16.1
2018-10-04T18:13:07.676Z,16.1
2018-10-04T18:23:06.901Z,16
2018-10-04T18:33:06.132Z,15.9
2018-10-04T18:43:05.338Z,15.9
2018-10-04T18:53:04.560Z,15.8
2018-10-04T19:03:03.782Z,15.8
2018-10-04T19:13:03.005Z,15.7
2018-10-04T19:23:02.231Z,15.7
2018-10-04T19:33:01.458Z,15.6
2018-10-04T19:43:00.680Z,15.5
2018-10-04T19:52:59.897Z,15.4
2018-10-04T20:02:59.123Z,15.3
2018-10-04T20:12:58.345Z,15.2
2018-10-04T20:22:57.572Z,15.1
2018-10-04T20:32:56.794Z,15
2018-10-04T20:42:56.008Z,14.9
2018-10-04T20:52:55.231Z,14.8
2018-10-04T21:02:54.451Z,14.8
2018-10-04T21:12:53.674Z,14.6
2018-10-04T21:22:52.917Z,14.6
2018-10-04T21:32:52.113Z,14.4
2018-10-04T21:42:51.335Z,14.4
2018-10-04T21:52:50.553Z,14.3
2018-10-04T22:02:49.775Z,14.3
2018-10-04T22:12:48.995Z,14.1
2018-10-04T22:22:48.211Z,14.1
2018-10-04T22:32:47.437Z,14
2018-10-04T22:42:46.656Z,13.9
2018-10-04T22:52:45.876Z,13.8
2018-10-04T23:02:45.159Z,13.6
2018-10-04T23:12:44.335Z,13.3
2018-10-04T23:22:43.538Z,13.1
2018-10-04T23:32:42.757Z,13
2018-10-04T23:42:41.972Z,12.9
2018-10-04T23:52:41.203Z,12.9
